createdAt,value
2017-08-09T00:01:37.928Z,75.60
2017-08-09T00:06:41.149Z,76.30
2017-08-09T00:11:44.340Z,76.50
2017-08-09T00:16:47.548Z,76.30
2017-08-09T00:21:50.728Z,76.60
2017-08-09T00:26:53.899Z,77.20
2017-08-09T00:31:57.097Z,76.90
2017-08-09T00:37:00.262Z,77.50
2017-08-09T00:42:04.333Z,77.40
2017-08-09T00:47:07.575Z,77.40
2017-08-09T00:52:10.773Z,77.20
2017-08-09T00:57:13.936Z,77.40
2017-08-09T01:02:17.138Z,77.40
2017-08-09T01:07:20.320Z,77.30
2017-08-09T01:12:24.286Z,78.10
2017-08-09T01:17:27.493Z,78.10
2017-08-09T01:22:30.671Z,79.20
2017-08-09T01:27:33.865Z,79.00
2017-08-09T01:32:37.798Z,79.30
2017-08-09T01:37:40.990Z,79.20
2017-08-09T01:42:45.029Z,80.10
2017-08-09T01:47:48.984Z,80.10
2017-08-09T01:52:52.149Z,80.10
2017-08-09T01:57:56.082Z,80.60
2017-08-09T02:03:00.006Z,80.80
2017-08-09T02:08:03.177Z,80.70
2017-08-09T02:13:06.377Z,80.80
2017-08-09T02:18:09.535Z,81.30
2017-08-09T02:23:12.713Z,81.20
2017-08-09T02:28:16.654Z,81.90
2017-08-09T02:33:20.592Z,81.20
2017-08-09T02:38:23.787Z,81.20
2017-08-09T02:43:26.997Z,81.80
2017-08-09T02:48:30.939Z,83.30
2017-08-09T02:53:34.128Z,82.50
2017-08-09T02:58:37.334Z,82.80
2017-08-09T03:03:40.506Z,83.40
2017-08-09T03:08:43.693Z,83.60
2017-08-09T03:13:46.912Z,83.20
2017-08-09T03:18:50.074Z,83.60
2017-08-09T03:23:53.253Z,84.80
2017-08-09T03:28:57.193Z,86.90
2017-08-09T03:34:00.369Z,86.80
2017-08-09T03:39:03.552Z,85.70
2017-08-09T03:44:06.731Z,85.50
2017-08-09T03:49:10.082Z,85.50
2017-08-09T03:54:13.249Z,85.70
2017-08-09T03:59:16.459Z,86.10
2017-08-09T04:04:19.656Z,86.40
2017-08-09T04:09:22.846Z,86.30
2017-08-09T04:14:26.028Z,86.10
2017-08-09T04:19:30.077Z,86.20
2017-08-09T04:24:34.015Z,85.50
2017-08-09T04:29:37.297Z,85.40
2017-08-09T04:34:41.230Z,84.40
2017-08-09T04:39:44.397Z,85.10
2017-08-09T04:44:47.588Z,85.40
2017-08-09T04:49:50.874Z,86.30
2017-08-09T04:54:54.119Z,85.10
2017-08-09T04:59:57.305Z,83.90
2017-08-09T05:05:00.470Z,80.70
2017-08-09T05:10:03.674Z,73.40
2017-08-09T05:15:07.623Z,69.80
2017-08-09T05:20:10.813Z,69.80
2017-08-09T05:25:14.002Z,70.30
2017-08-09T05:30:18.046Z,70.30
2017-08-09T05:35:21.984Z,67.20
2017-08-09T05:40:25.163Z,67.10
2017-08-09T05:45:29.118Z,64.80
2017-08-09T05:50:32.327Z,64.80
2017-08-09T05:55:36.297Z,63.50
2017-08-09T06:00:39.481Z,63.50
2017-08-09T06:05:42.655Z,60.10
2017-08-09T06:10:45.830Z,61.70
2017-08-09T06:15:49.776Z,55.60
2017-08-09T06:20:53.719Z,54.80
2017-08-09T06:25:56.906Z,54.70
2017-08-09T06:31:00.828Z,53.60
2017-08-09T06:36:04.013Z,53.60
2017-08-09T06:41:07.183Z,53.70
2017-08-09T06:46:10.369Z,53.50
2017-08-09T06:51:13.569Z,52.60
2017-08-09T06:56:16.801Z,56.90
2017-08-09T07:01:19.993Z,53.40
2017-08-09T07:06:23.185Z,53.90
2017-08-09T07:11:27.102Z,58.30
2017-08-09T07:16:30.269Z,58.20
2017-08-09T07:21:33.457Z,56.30
2017-08-09T07:26:36.621Z,57.40
2017-08-09T07:31:39.801Z,59.00
2017-08-09T07:36:42.986Z,58.40
2017-08-09T07:41:46.157Z,56.10
2017-08-09T07:46:49.356Z,52.80
2017-08-09T07:51:52.539Z,49.80
2017-08-09T07:56:56.497Z,54.50
2017-08-09T08:01:59.686Z,54.40
2017-08-09T08:07:02.892Z,52.50
2017-08-09T08:12:06.827Z,52.30
2017-08-09T08:17:10.036Z,52.30
2017-08-09T08:22:13.236Z,56.60
2017-08-09T08:27:16.445Z,56.10
2017-08-09T08:32:19.639Z,54.10
2017-08-09T08:37:23.598Z,49.00
2017-08-09T08:42:26.781Z,48.90
2017-08-09T08:47:30.086Z,49.30
2017-08-09T08:52:34.055Z,50.70
2017-08-09T08:57:37.247Z,50.50
2017-08-09T09:02:40.553Z,51.90
2017-08-09T09:07:43.731Z,52.80
2017-08-09T09:12:46.935Z,49.80
2017-08-09T09:17:50.903Z,47.70
2017-08-09T09:22:54.068Z,47.70
2017-08-09T09:27:57.236Z,46.20
2017-08-09T09:33:00.414Z,46.10
2017-08-09T09:38:03.602Z,47.70
2017-08-09T09:43:06.786Z,49.50
2017-08-09T09:48:10.745Z,51.00
2017-08-09T09:53:13.925Z,50.90
2017-08-09T09:58:17.130Z,49.60
2017-08-09T10:03:21.088Z,47.80
2017-08-09T10:08:24.258Z,47.80
2017-08-09T10:13:27.448Z,46.60
2017-08-09T10:18:30.646Z,47.30
2017-08-09T10:23:33.818Z,47.90
2017-08-09T10:28:37.001Z,47.10
2017-08-09T10:33:40.358Z,47.50
2017-08-09T10:38:43.536Z,47.40
2017-08-09T10:43:46.730Z,47.30
2017-08-09T10:48:50.255Z,46.40
2017-08-09T10:53:53.443Z,46.60
2017-08-09T10:58:56.635Z,44.90
2017-08-09T11:04:00.580Z,46.00
2017-08-09T11:09:03.740Z,45.90
2017-08-09T11:14:07.697Z,46.80
2017-08-09T11:19:10.906Z,46.70
2017-08-09T11:24:14.106Z,45.80
2017-08-09T11:29:17.306Z,45.90
2017-08-09T11:34:21.253Z,46.80
2017-08-09T11:39:24.455Z,46.80
2017-08-09T11:44:27.627Z,47.20
2017-08-09T11:49:31.587Z,45.70
2017-08-09T11:54:34.758Z,45.70
2017-08-09T11:59:38.805Z,45.60
2017-08-09T12:04:42.722Z,46.70
2017-08-09T12:09:46.679Z,46.50
2017-08-09T12:14:49.869Z,46.50
2017-08-09T12:19:53.055Z,46.70
2017-08-09T12:24:56.993Z,46.00
2017-08-09T12:30:00.186Z,46.00
2017-08-09T12:35:04.138Z,43.70
2017-08-09T12:40:07.350Z,43.50
2017-08-09T12:45:10.546Z,43.50
2017-08-09T12:50:13.741Z,41.70
2017-08-09T12:55:16.966Z,42.40
2017-08-09T13:00:20.487Z,42.20
2017-08-09T13:05:23.697Z,45.40
2017-08-09T13:10:27.044Z,44.50
2017-08-09T13:15:30.245Z,45.80
2017-08-09T13:20:33.430Z,44.80
2017-08-09T13:25:36.634Z,45.20
2017-08-09T13:30:39.825Z,44.70
2017-08-09T13:35:43.028Z,43.50
2017-08-09T13:40:46.209Z,43.10
2017-08-09T13:45:50.184Z,43.10
2017-08-09T13:50:53.374Z,43.10
2017-08-09T13:55:56.557Z,41.90
2017-08-09T14:00:59.906Z,41.30
2017-08-09T14:06:03.093Z,43.00
2017-08-09T14:11:06.286Z,41.80
2017-08-09T14:16:09.483Z,41.00
2017-08-09T14:21:12.689Z,41.50
2017-08-09T14:26:15.898Z,42.40
2017-08-09T14:31:19.862Z,43.10
2017-08-09T14:36:23.061Z,43.10
2017-08-09T14:41:26.246Z,44.90
2017-08-09T14:46:29.425Z,44.40
2017-08-09T14:51:33.395Z,44.30
2017-08-09T14:56:36.604Z,44.40
2017-08-09T15:01:39.778Z,43.20
2017-08-09T15:06:42.967Z,43.30
2017-08-09T15:11:46.940Z,43.40
2017-08-09T15:16:50.154Z,43.40
2017-08-09T15:21:53.346Z,42.30
2017-08-09T15:26:56.533Z,41.90
2017-08-09T15:31:59.737Z,44.20
2017-08-09T15:37:03.681Z,42.70
2017-08-09T15:42:06.888Z,42.70
2017-08-09T15:47:10.080Z,43.00
2017-08-09T15:52:13.270Z,43.50
2017-08-09T15:57:17.217Z,42.60
2017-08-09T16:02:20.380Z,42.60
2017-08-09T16:07:23.606Z,43.20
2017-08-09T16:12:27.625Z,41.60
2017-08-09T16:17:30.775Z,42.10
2017-08-09T16:22:33.977Z,42.20
2017-08-09T16:27:37.145Z,42.40
2017-08-09T16:32:41.108Z,41.10
2017-08-09T16:37:44.323Z,41.00
2017-08-09T16:48:22.918Z,41.60
2017-08-09T16:53:26.121Z,41.60
2017-08-09T16:58:29.379Z,42.30
2017-08-09T17:03:33.338Z,42.80
2017-08-09T17:08:36.541Z,42.70
2017-08-09T17:13:39.718Z,42.80
2017-08-09T17:18:43.689Z,42.20
2017-08-09T17:23:46.900Z,42.20
2017-08-09T17:28:50.099Z,41.70
2017-08-09T17:33:54.169Z,42.30
2017-08-09T17:38:58.111Z,44.90
2017-08-09T17:44:01.390Z,44.30
2017-08-09T17:49:04.599Z,43.50
2017-08-09T17:54:07.806Z,44.70
2017-08-09T17:59:10.996Z,45.10
2017-08-09T18:04:14.245Z,45.50
2017-08-09T18:09:17.437Z,45.50
2017-08-09T18:14:21.430Z,44.70
2017-08-09T18:19:24.681Z,44.60
2017-08-09T18:24:27.885Z,45.10
2017-08-09T18:29:31.130Z,45.60
2017-08-09T18:34:34.325Z,47.80
2017-08-09T18:39:37.505Z,48.50
2017-08-09T18:44:41.466Z,47.90
2017-08-09T18:49:44.702Z,47.90
2017-08-09T18:54:47.902Z,48.70
2017-08-09T18:59:51.253Z,48.80
2017-08-09T19:04:55.207Z,50.50
2017-08-09T19:09:58.412Z,50.50
2017-08-09T19:15:01.654Z,51.20
2017-08-09T19:20:04.876Z,50.40
2017-08-09T19:25:08.076Z,51.50
2017-08-09T19:30:11.370Z,53.00
2017-08-09T19:35:14.598Z,53.00
2017-08-09T19:40:18.108Z,53.00
2017-08-09T19:45:21.308Z,52.70
2017-08-09T19:50:24.493Z,53.20
2017-08-09T19:55:27.665Z,53.80
2017-08-09T20:00:30.899Z,53.50
2017-08-09T20:05:34.099Z,53.10
2017-08-09T20:10:37.385Z,53.10
2017-08-09T20:15:41.349Z,54.90
2017-08-09T20:20:44.517Z,55.10
2017-08-09T20:25:48.464Z,54.70
2017-08-09T20:30:51.677Z,54.70
2017-08-09T20:35:54.853Z,54.50
2017-08-09T20:40:58.074Z,54.90
2017-08-09T20:46:02.027Z,62.30
2017-08-09T20:51:05.195Z,61.90
2017-08-09T20:56:08.420Z,57.10
2017-08-09T21:01:11.615Z,57.90
2017-08-09T21:06:14.793Z,58.60
2017-08-09T21:11:18.762Z,57.80
2017-08-09T21:16:21.981Z,57.80
2017-08-09T21:21:25.154Z,58.20
2017-08-09T21:26:28.434Z,58.40
2017-08-09T21:31:32.394Z,64.20
2017-08-09T21:36:35.691Z,64.10
2017-08-09T21:41:39.718Z,75.80
2017-08-09T21:46:43.654Z,75.30
2017-08-09T21:51:46.842Z,74.30
2017-08-09T21:56:50.799Z,84.60
2017-08-09T22:01:53.949Z,84.60
2017-08-09T22:06:57.161Z,87.00
2017-08-09T22:12:01.136Z,85.10
2017-08-09T22:17:04.308Z,85.40
2017-08-09T22:22:08.317Z,86.80
2017-08-09T22:27:12.270Z,86.00
2017-08-09T22:32:15.472Z,85.20
2017-08-09T22:37:18.749Z,89.70
2017-08-09T22:42:21.936Z,92.60
2017-08-09T22:47:25.213Z,94.00
2017-08-09T22:52:28.399Z,94.20
2017-08-09T22:57:32.353Z,95.60
2017-08-09T23:02:35.634Z,95.60
2017-08-09T23:07:39.626Z,94.90
2017-08-09T23:12:42.815Z,94.80
2017-08-09T23:17:46.016Z,96.40
2017-08-09T23:22:49.190Z,96.40
2017-08-09T23:27:52.369Z,96.60
2017-08-09T23:32:56.317Z,97.90
2017-08-09T23:37:59.516Z,97.90
2017-08-09T23:43:03.440Z,98.60
2017-08-09T23:48:06.629Z,98.50
2017-08-09T23:53:10.601Z,99.80
2017-08-09T23:58:13.771Z,99.70
